Time;durP1;ratioP1;P1;durP2;ratioP2;P2;SDS_P1;SDS_P2;PMS_P1;PMS_P2;Temp;Humidity;BMP_temperature;BMP_pressure;BME280_temperature;BME280_humidity;BME280_pressure;Samples;Min_cycle;Max_cycle;Signal;HPM_P1;HPM_P2
2022/09/29 00:01:08;;;;;;;7.43;3.03;;;8.90;99.90;;;;;;5134742;27;20405;-82
2022/09/29 00:03:34;;;;;;;7.80;3.40;;;9.00;99.90;;;;;;5135112;27;20461;-82
2022/09/29 00:06:00;;;;;;;8.45;3.30;;;9.00;99.90;;;;;;5117968;27;20130;-81
2022/09/29 00:08:29;;;;;;;7.90;3.28;;;8.90;99.90;;;;;;5134365;27;20478;-81
2022/09/29 00:10:55;;;;;;;8.00;3.72;;;8.90;99.90;;;;;;5129963;27;20212;-81
2022/09/29 00:13:22;;;;;;;7.30;3.83;;;8.90;99.90;;;;;;5114812;27;20633;-81
2022/09/29 00:15:56;;;;;;;8.60;3.90;;;8.90;99.90;;;;;;5096718;27;20096;-82
2022/09/29 00:18:21;;;;;;;6.60;3.05;;;8.90;99.90;;;;;;5112675;27;20035;-81
2022/09/29 00:21:05;;;;;;;8.02;3.30;;;8.90;99.90;;;;;;5114178;27;20110;-82
2022/09/29 00:23:32;;;;;;;6.90;3.40;;;8.90;99.90;;;;;;5114291;27;20031;-82
2022/09/29 00:26:05;;;;;;;6.60;3.30;;;8.90;99.90;;;;;;5114813;28;20031;-82
2022/09/29 00:28:32;;;;;;;7.82;3.72;;;8.90;99.90;;;;;;5114370;27;20088;-81
2022/09/29 00:31:00;;;;;;;8.75;4.03;;;8.80;99.90;;;;;;5113832;27;20046;-81
2022/09/29 00:33:30;;;;;;;7.68;3.60;;;8.80;99.90;;;;;;5097116;27;20079;-81
2022/09/29 00:36:00;;;;;;;7.72;3.47;;;8.80;99.90;;;;;;5097436;28;20118;-82
2022/09/29 00:38:27;;;;;;;9.43;4.47;;;8.80;99.90;;;;;;5113896;28;20036;-81
2022/09/29 00:40:53;;;;;;;9.20;3.40;;;8.80;99.90;;;;;;5113841;28;20045;-81
2022/09/29 00:43:40;;;;;;;8.05;4.07;;;8.80;99.90;;;;;;5114221;28;20034;-81
2022/09/29 00:46:06;;;;;;;10.05;3.97;;;8.80;99.90;;;;;;5113116;28;20096;-81
2022/09/29 00:48:32;;;;;;;7.93;3.78;;;8.80;99.90;;;;;;5097185;28;20062;-81
2022/09/29 00:50:58;;;;;;;6.85;3.47;;;8.70;99.90;;;;;;5114180;28;20039;-81
2022/09/29 00:53:25;;;;;;;6.50;3.00;;;8.60;99.90;;;;;;5114159;28;20706;-81
2022/09/29 00:56:09;;;;;;;7.35;3.40;;;8.60;99.90;;;;;;5114145;28;20046;-81
2022/09/29 00:58:41;;;;;;;9.93;3.78;;;8.60;99.90;;;;;;5114269;28;20053;-81
2022/09/29 01:01:08;;;;;;;7.95;4.20;;;8.60;99.90;;;;;;5113763;28;20042;-81
2022/09/29 01:03:41;;;;;;;8.60;4.53;;;8.50;99.90;;;;;;5097128;28;20134;-81
2022/09/29 01:06:15;;;;;;;8.43;4.00;;;8.60;99.90;;;;;;5113907;28;20527;-81
2022/09/29 01:08:52;;;;;;;6.75;3.75;;;8.50;99.90;;;;;;5113991;28;20112;-81
2022/09/29 01:11:20;;;;;;;8.13;3.15;;;8.50;99.90;;;;;;5113623;28;20036;-81
2022/09/29 01:13:47;;;;;;;6.55;3.22;;;8.50;99.90;;;;;;5097093;28;20039;-81
2022/09/29 01:16:12;;;;;;;6.30;2.92;;;8.50;99.90;;;;;;5113880;28;20400;-81
2022/09/29 01:18:38;;;;;;;5.75;2.55;;;8.40;99.90;;;;;;5114034;28;20038;-81
2022/09/29 01:21:40;;;;;;;5.22;2.40;;;8.40;99.90;;;;;;5115262;27;20441;-81
2022/09/29 01:24:37;;;;;;;6.15;2.60;;;8.30;99.90;;;;;;5117880;27;20572;-81
2022/09/29 01:27:28;;;;;;;5.65;2.63;;;8.30;99.90;;;;;;5117584;27;20066;-81
2022/09/29 01:30:15;;;;;;;7.25;2.20;;;8.20;99.90;;;;;;5117407;27;20074;-82
2022/09/29 01:33:13;;;;;;;6.88;3.08;;;8.10;99.90;;;;;;5117300;27;20179;-81
2022/09/29 01:35:55;;;;;;;6.68;2.72;;;8.00;99.90;;;;;;5015677;28;20077;-81
2022/09/29 01:38:49;;;;;;;4.30;1.38;;;8.00;99.90;;;;;;5015604;28;20045;-81
2022/09/29 01:41:25;;;;;;;4.28;1.45;;;7.90;99.90;;;;;;5015267;28;20679;-81
2022/09/29 01:44:07;;;;;;;3.28;1.42;;;7.70;99.90;;;;;;4999614;28;20045;-81
2022/09/29 01:46:42;;;;;;;2.70;1.15;;;7.60;99.90;;;;;;5015504;28;20085;-81
2022/09/29 01:49:09;;;;;;;6.07;1.90;;;7.50;99.90;;;;;;5015870;28;20108;-81
2022/09/29 01:51:42;;;;;;;3.90;1.50;;;7.50;99.90;;;;;;5014929;28;20060;-82
2022/09/29 01:54:21;;;;;;;3.90;1.63;;;7.40;99.90;;;;;;5015940;28;20069;-81
2022/09/29 01:57:08;;;;;;;7.25;1.48;;;7.40;99.90;;;;;;5015489;28;20041;-81
2022/09/29 01:59:43;;;;;;;2.72;1.13;;;7.40;99.90;;;;;;5015098;28;20084;-81
2022/09/29 02:02:16;;;;;;;2.42;1.02;;;7.30;99.90;;;;;;4999087;28;20523;-81
2022/09/29 02:04:48;;;;;;;;;;;7.30;99.90;;;;;;5015913;28;20147;-81
2022/09/29 02:07:23;;;;;;;4.45;1.60;;;7.20;99.90;;;;;;5015059;28;20027;-81
2022/09/29 02:09:56;;;;;;;4.05;1.75;;;7.10;99.90;;;;;;5015401;28;20041;-81
2022/09/29 02:12:26;;;;;;;5.85;2.33;;;7.10;99.90;;;;;;5112749;27;20385;-81
2022/09/29 02:14:54;;;;;;;5.25;1.90;;;7.10;99.90;;;;;;5116493;27;20074;-81
2022/09/29 02:17:35;;;;;;;5.97;2.30;;;7.10;99.90;;;;;;5116876;27;20416;-81
2022/09/29 02:20:02;;;;;;;5.80;2.05;;;7.10;99.90;;;;;;5116783;27;20448;-81
2022/09/29 02:22:28;;;;;;;5.90;2.67;;;7.10;99.90;;;;;;5098978;27;20484;-81
2022/09/29 02:24:58;;;;;;;6.55;2.72;;;7.10;99.90;;;;;;5116623;27;20068;-81
2022/09/29 02:27:27;;;;;;;4.90;2.30;;;7.20;99.90;;;;;;5116845;27;20061;-81
2022/09/29 02:29:53;;;;;;;6.50;2.60;;;7.10;99.90;;;;;;5116052;27;20130;-81
2022/09/29 02:32:19;;;;;;;5.35;2.13;;;7.10;99.90;;;;;;5116229;27;20369;-81
2022/09/29 02:34:49;;;;;;;4.10;2.00;;;7.10;99.90;;;;;;5116426;27;20037;-81
2022/09/29 02:37:35;;;;;;;5.13;2.03;;;7.00;99.90;;;;;;5115969;27;20051;-81
2022/09/29 02:40:24;;;;;;;6.25;2.28;;;7.00;99.90;;;;;;5099747;27;20087;-81
2022/09/29 02:42:58;;;;;;;6.03;2.70;;;7.00;99.90;;;;;;5115930;27;20095;-81
2022/09/29 02:45:41;;;;;;;5.18;2.15;;;7.00;99.90;;;;;;5115947;27;20039;-81
2022/09/29 02:48:55;;;;;;;5.25;2.00;;;7.00;99.90;;;;;;5115973;27;20035;-81
2022/09/29 02:51:26;;;;;;;;;;;7.00;99.90;;;;;;5026303;27;20056;-81
2022/09/29 02:54:19;;;;;;;2.60;1.42;;;6.90;99.90;;;;;;5099024;27;20064;-81
2022/09/29 02:56:57;;;;;;;3.10;1.60;;;6.90;99.90;;;;;;5099000;27;20031;-81
2022/09/29 02:59:29;;;;;;;2.78;1.35;;;6.80;99.90;;;;;;5115107;27;20031;-81
2022/09/29 03:01:56;;;;;;;6.55;2.05;;;6.80;99.90;;;;;;5116147;27;20412;-81
2022/09/29 03:04:25;;;;;;;6.75;2.35;;;6.80;99.90;;;;;;5115752;27;20035;-81
2022/09/29 03:06:51;;;;;;;4.57;1.85;;;6.70;99.90;;;;;;5115554;27;20118;-81
2022/09/29 03:09:17;;;;;;;5.40;2.30;;;6.70;99.90;;;;;;5115827;27;20043;-81
2022/09/29 03:11:43;;;;;;;7.82;3.03;;;6.60;99.90;;;;;;5133545;27;20091;-81
2022/09/29 03:14:08;;;;;;;5.57;2.38;;;6.70;99.90;;;;;;5115674;27;20031;-81
2022/09/29 03:16:35;;;;;;;6.63;2.78;;;6.70;99.90;;;;;;5133877;27;20047;-81
2022/09/29 03:19:02;;;;;;;42.67;5.40;;;6.60;99.90;;;;;;5115512;27;20551;-81
2022/09/29 03:21:28;;;;;;;25.13;5.20;;;6.70;99.90;;;;;;5114713;27;20076;-81
2022/09/29 03:23:53;;;;;;;30.08;5.70;;;6.70;99.90;;;;;;5115961;27;20099;-81
2022/09/29 03:26:19;;;;;;;8.20;4.05;;;6.70;99.90;;;;;;5115564;27;20039;-81
2022/09/29 03:28:45;;;;;;;63.90;6.13;;;6.70;99.90;;;;;;5114902;27;20043;-81
2022/09/29 03:31:10;;;;;;;53.67;6.53;;;6.70;99.90;;;;;;5098141;27;20042;-81
2022/09/29 03:33:38;;;;;;;50.90;7.85;;;6.70;99.90;;;;;;5115113;27;20039;-81
2022/09/29 03:36:04;;;;;;;8.52;4.55;;;6.70;99.90;;;;;;5114857;27;20381;-81
2022/09/29 03:38:31;;;;;;;9.55;4.60;;;6.70;99.90;;;;;;5098333;27;20031;-81
2022/09/29 03:40:56;;;;;;;24.70;6.10;;;6.70;99.90;;;;;;5114667;27;20035;-81
2022/09/29 03:43:22;;;;;;;13.13;4.43;;;6.80;99.90;;;;;;5114247;27;20118;-81
2022/09/29 03:45:49;;;;;;;8.77;5.13;;;6.80;99.90;;;;;;5115221;27;20103;-81
2022/09/29 03:48:15;;;;;;;12.15;4.95;;;6.80;99.90;;;;;;5115061;27;20043;-81
2022/09/29 03:50:41;;;;;;;8.45;5.35;;;6.80;99.90;;;;;;5114632;27;20524;-81
2022/09/29 03:53:06;;;;;;;8.07;4.63;;;6.80;99.90;;;;;;5114990;27;20031;-81
2022/09/29 03:55:32;;;;;;;6.95;3.75;;;6.80;99.90;;;;;;5097610;27;20046;-81
2022/09/29 03:57:57;;;;;;;7.90;4.45;;;6.80;99.90;;;;;;5097624;27;20067;-81
2022/09/29 04:00:23;;;;;;;7.50;3.97;;;6.80;99.90;;;;;;5114653;27;20035;-81
2022/09/29 04:02:48;;;;;;;13.27;4.13;;;6.80;99.90;;;;;;5114575;27;20135;-81
2022/09/29 04:05:14;;;;;;;6.85;2.72;;;6.70;99.90;;;;;;5114775;27;20046;-81
2022/09/29 04:07:40;;;;;;;6.78;3.55;;;6.70;99.90;;;;;;5114919;27;20050;-81
2022/09/29 04:10:06;;;;;;;13.85;3.15;;;6.60;99.90;;;;;;5114423;27;20035;-81
2022/09/29 04:12:31;;;;;;;4.80;2.15;;;6.60;99.90;;;;;;5097096;27;20043;-81
2022/09/29 04:14:57;;;;;;;5.18;2.45;;;6.50;99.90;;;;;;5097926;27;20276;-81
2022/09/29 04:17:22;;;;;;;6.35;2.72;;;6.40;99.90;;;;;;5097456;27;20049;-81
2022/09/29 04:19:48;;;;;;;6.82;2.90;;;6.40;99.90;;;;;;5114059;27;20057;-81
2022/09/29 04:22:17;;;;;;;5.53;2.30;;;6.40;99.90;;;;;;5114408;27;20444;-81
2022/09/29 04:24:43;;;;;;;5.47;2.40;;;6.30;99.90;;;;;;5114353;27;20114;-81
2022/09/29 04:27:08;;;;;;;5.68;2.60;;;6.30;99.90;;;;;;5114040;28;20035;-81
2022/09/29 04:29:34;;;;;;;6.93;2.83;;;6.30;99.90;;;;;;5114374;27;20095;-81
2022/09/29 04:32:00;;;;;;;7.22;3.20;;;6.30;99.90;;;;;;5114091;27;20045;-81
2022/09/29 04:34:25;;;;;;;5.68;2.75;;;6.30;99.90;;;;;;5114157;28;20083;-81
2022/09/29 04:36:51;;;;;;;5.32;2.72;;;6.30;99.90;;;;;;5114228;27;20035;-81
2022/09/29 04:39:16;;;;;;;5.53;2.33;;;6.30;99.90;;;;;;5114359;28;20122;-81
2022/09/29 04:41:42;;;;;;;6.32;3.10;;;6.20;99.90;;;;;;5113995;28;20122;-81
2022/09/29 04:44:07;;;;;;;8.23;3.13;;;6.20;99.90;;;;;;5114079;28;20496;-81
2022/09/29 04:46:33;;;;;;;5.22;2.60;;;6.10;99.90;;;;;;5097104;28;20047;-81
2022/09/29 04:48:58;;;;;;;6.30;2.88;;;6.10;99.90;;;;;;5114135;28;20042;-81
2022/09/29 04:51:24;;;;;;;6.22;2.35;;;6.10;99.90;;;;;;5113668;28;20039;-81
2022/09/29 04:53:52;;;;;;;4.72;2.25;;;6.00;99.90;;;;;;5097233;28;20133;-81
2022/09/29 04:56:17;;;;;;;6.82;2.40;;;5.90;99.90;;;;;;5117649;27;20529;-81
2022/09/29 04:58:43;;;;;;;7.47;2.60;;;5.80;99.90;;;;;;5117682;27;20074;-81
2022/09/29 05:01:12;;;;;;;4.53;2.60;;;5.80;99.90;;;;;;5118279;27;20078;-81
2022/09/29 05:03:38;;;;;;;8.57;2.90;;;5.70;99.90;;;;;;5118410;27;20058;-81
2022/09/29 05:06:04;;;;;;;8.02;3.42;;;5.70;99.90;;;;;;5118010;27;20496;-81
2022/09/29 05:08:29;;;;;;;9.15;3.25;;;5.70;99.90;;;;;;5117166;27;20412;-81
2022/09/29 05:10:55;;;;;;;15.95;4.00;;;5.60;99.90;;;;;;5100012;27;20087;-81
2022/09/29 05:13:20;;;;;;;17.23;4.32;;;5.50;99.90;;;;;;5117666;27;20102;-81
2022/09/29 05:15:46;;;;;;;22.33;4.05;;;5.50;99.90;;;;;;5118050;27;20104;-81
2022/09/29 05:18:11;;;;;;;7.95;3.83;;;5.60;99.90;;;;;;5101157;27;20521;-81
2022/09/29 05:20:37;;;;;;;7.95;4.20;;;5.60;99.90;;;;;;5117407;27;20035;-81
2022/09/29 05:23:08;;;;;;;9.35;4.40;;;5.60;99.90;;;;;;5117428;27;20047;-81
2022/09/29 05:25:35;;;;;;;10.15;4.18;;;5.60;99.90;;;;;;5117569;27;20032;-81
2022/09/29 05:28:01;;;;;;;16.00;4.68;;;5.60;99.90;;;;;;5117491;27;20039;-81
2022/09/29 05:30:26;;;;;;;53.35;7.28;;;5.70;99.90;;;;;;5117663;27;20381;-81
2022/09/29 05:32:52;;;;;;;25.20;5.45;;;5.60;99.90;;;;;;5100367;27;20035;-81
2022/09/29 05:35:17;;;;;;;42.80;8.70;;;5.60;99.90;;;;;;5117331;27;20039;-81
2022/09/29 05:37:45;;;;;;;23.88;5.95;;;5.60;99.90;;;;;;5100455;27;21330;-81
2022/09/29 05:40:10;;;;;;;29.55;5.88;;;5.60;99.90;;;;;;5100270;27;20444;-81
2022/09/29 05:42:36;;;;;;;24.25;5.18;;;5.70;99.90;;;;;;5117181;27;20035;-81
2022/09/29 05:45:02;;;;;;;30.30;7.40;;;5.60;99.90;;;;;;5117628;27;20039;-81
2022/09/29 05:47:27;;;;;;;25.23;5.30;;;5.60;99.90;;;;;;5117362;27;20100;-81
2022/09/29 05:49:53;;;;;;;44.72;6.50;;;5.60;99.90;;;;;;5117086;27;20062;-81
2022/09/29 05:52:18;;;;;;;25.55;5.68;;;5.60;99.90;;;;;;5100000;27;20416;-81
2022/09/29 05:54:44;;;;;;;23.45;5.38;;;5.60;99.90;;;;;;5117496;27;20043;-81
2022/09/29 05:57:10;;;;;;;20.15;6.22;;;5.60;99.90;;;;;;5116951;27;20043;-81
2022/09/29 05:59:35;;;;;;;12.50;5.38;;;5.60;99.90;;;;;;5117016;27;20042;-81
2022/09/29 06:02:01;;;;;;;12.07;5.60;;;5.60;99.90;;;;;;5116946;27;20120;-81
2022/09/29 06:04:26;;;;;;;17.67;5.20;;;5.60;99.90;;;;;;5119648;27;20069;-81
2022/09/29 06:06:54;;;;;;;14.07;5.68;;;5.60;99.90;;;;;;5132079;27;20039;-81
2022/09/29 06:09:19;;;;;;;20.35;5.05;;;5.60;99.90;;;;;;5137793;27;20061;-80
2022/09/29 06:11:45;;;;;;;19.05;5.85;;;5.60;99.90;;;;;;5136845;27;20036;-81
2022/09/29 06:14:10;;;;;;;14.85;6.70;;;5.60;99.90;;;;;;5136644;27;20432;-81
2022/09/29 06:16:36;;;;;;;10.90;5.28;;;5.60;99.90;;;;;;5137257;27;20039;-81
2022/09/29 06:19:03;;;;;;;10.18;5.43;;;5.60;99.90;;;;;;5137020;27;20034;-81
2022/09/29 06:21:30;;;;;;;10.82;5.35;;;5.60;99.90;;;;;;5137146;27;20034;-81
2022/09/29 06:23:57;;;;;;;8.73;5.35;;;5.60;99.90;;;;;;5137156;27;20034;-81
2022/09/29 06:26:24;;;;;;;9.63;5.25;;;5.60;99.90;;;;;;5132728;27;20034;-81
2022/09/29 06:28:50;;;;;;;20.42;5.75;;;5.70;99.90;;;;;;5126305;27;20066;-81
2022/09/29 06:31:18;;;;;;;11.80;5.65;;;5.70;99.90;;;;;;5125328;27;20499;-81
2022/09/29 06:33:44;;;;;;;15.27;5.63;;;5.70;99.90;;;;;;5125492;27;20429;-81
2022/09/29 06:39:08;;;;;;;15.75;5.45;;;5.70;99.90;;;;;;5117150;27;20035;-81
2022/09/29 06:41:34;;;;;;;25.02;5.80;;;5.70;99.90;;;;;;5124553;27;20472;-81
2022/09/29 06:44:00;;;;;;;20.77;5.93;;;5.70;99.90;;;;;;5133567;27;20038;-81
2022/09/29 06:46:25;;;;;;;29.00;6.63;;;5.80;99.90;;;;;;5136924;27;20049;-81
2022/09/29 06:48:52;;;;;;;11.38;5.43;;;5.80;99.90;;;;;;5119408;27;20038;-81
2022/09/29 06:51:21;;;;;;;25.63;6.70;;;5.80;99.90;;;;;;5136276;27;20070;-81
2022/09/29 06:53:47;;;;;;;15.52;5.95;;;5.80;99.90;;;;;;5136641;27;20046;-81
2022/09/29 06:56:12;;;;;;;17.92;5.65;;;5.90;99.90;;;;;;5136320;27;20416;-81
2022/09/29 06:58:38;;;;;;;19.90;8.15;;;5.90;99.90;;;;;;5136499;27;20035;-81
2022/09/29 07:01:04;;;;;;;19.05;6.18;;;5.90;99.90;;;;;;5118975;27;20098;-81
2022/09/29 07:03:31;;;;;;;12.68;6.57;;;6.00;99.90;;;;;;5133113;27;20038;-81
2022/09/29 07:06:00;;;;;;;14.05;6.68;;;6.00;99.90;;;;;;5135683;27;20079;-81
2022/09/29 07:08:27;;;;;;;18.20;6.50;;;6.00;99.90;;;;;;5118568;27;20074;-81
2022/09/29 07:10:53;;;;;;;32.88;7.38;;;6.10;99.90;;;;;;5134882;27;20043;-81
2022/09/29 07:13:18;;;;;;;67.00;9.57;;;6.10;99.90;;;;;;5135404;27;20130;-81
2022/09/29 07:15:46;;;;;;;71.30;8.80;;;6.10;99.90;;;;;;5125889;27;20348;-82
2022/09/29 07:18:12;;;;;;;68.13;9.45;;;6.10;99.90;;;;;;5114161;28;20488;-82
2022/09/29 07:20:39;;;;;;;13.48;6.65;;;6.20;99.90;;;;;;5114940;27;20034;-82
2022/09/29 07:23:07;;;;;;;14.80;7.20;;;6.20;99.90;;;;;;5097465;27;20043;-82
2022/09/29 07:25:33;;;;;;;44.15;9.55;;;6.20;99.90;;;;;;5114497;27;20088;-82
2022/09/29 07:28:00;;;;;;;21.60;8.07;;;6.30;99.90;;;;;;5114360;27;20517;-82
2022/09/29 07:30:26;;;;;;;52.80;9.40;;;6.40;99.90;;;;;;5114738;27;20087;-82
2022/09/29 07:32:54;;;;;;;32.50;9.98;;;6.40;99.90;;;;;;5113824;27;20412;-82
2022/09/29 07:35:20;;;;;;;28.90;10.73;;;6.50;99.90;;;;;;5114566;27;20381;-82
2022/09/29 07:37:54;;;;;;;25.13;9.05;;;6.50;99.90;;;;;;5128860;27;20084;-81
2022/09/29 07:40:21;;;;;;;48.00;10.95;;;6.60;99.90;;;;;;5113944;27;20035;-82
2022/09/29 07:42:47;;;;;;;60.70;12.40;;;6.60;99.90;;;;;;5114264;27;20035;-82
2022/09/29 07:45:16;;;;;;;39.42;11.75;;;6.70;99.90;;;;;;5114349;27;20067;-82
2022/09/29 07:47:42;;;;;;;17.73;10.57;;;6.80;99.90;;;;;;5119114;27;20050;-81
2022/09/29 07:50:08;;;;;;;46.25;13.13;;;6.80;99.90;;;;;;5119716;27;20042;-81
2022/09/29 07:52:34;;;;;;;34.85;12.75;;;6.90;99.90;;;;;;5133752;27;20147;-81
2022/09/29 07:55:00;;;;;;;26.52;13.18;;;7.00;99.90;;;;;;5134542;27;20471;-81
2022/09/29 07:57:25;;;;;;;24.88;10.95;;;7.10;99.90;;;;;;5134345;27;20046;-82
2022/09/29 07:59:53;;;;;;;26.75;11.52;;;7.10;99.90;;;;;;5152228;27;20041;-82
2022/09/29 08:02:19;;;;;;;21.63;12.35;;;7.20;99.90;;;;;;5133857;27;20129;-82
2022/09/29 08:04:45;;;;;;;20.42;12.45;;;7.30;99.90;;;;;;5117113;27;20084;-82
2022/09/29 08:07:10;;;;;;;38.95;12.88;;;7.40;99.90;;;;;;5117517;27;20046;-82
2022/09/29 08:09:36;;;;;;;47.15;14.55;;;7.40;99.90;;;;;;5134031;27;20125;-82
2022/09/29 08:12:01;;;;;;;33.55;13.15;;;7.50;99.90;;;;;;5134392;27;20081;-82
2022/09/29 08:14:27;;;;;;;23.73;12.52;;;7.50;99.90;;;;;;5117437;27;20043;-82
2022/09/29 08:16:52;;;;;;;32.70;13.20;;;7.60;99.90;;;;;;5133954;27;20074;-82
2022/09/29 08:19:18;;;;;;;23.83;13.23;;;7.60;99.90;;;;;;5134211;27;20034;-82
2022/09/29 08:21:45;;;;;;;25.55;13.65;;;7.70;99.90;;;;;;5134172;27;20037;-81
2022/09/29 08:24:12;;;;;;;21.13;13.60;;;7.80;99.90;;;;;;5134307;27;20046;-82
2022/09/29 08:26:39;;;;;;;19.92;13.63;;;7.90;99.90;;;;;;5134344;27;20046;-82
2022/09/29 08:29:04;;;;;;;19.35;13.02;;;8.00;99.90;;;;;;5134530;27;20042;-81
2022/09/29 08:31:30;;;;;;;18.45;12.88;;;8.10;99.90;;;;;;5133579;27;20175;-81
2022/09/29 08:34:00;;;;;;;20.35;13.00;;;8.20;99.90;;;;;;5117619;27;20121;-82
2022/09/29 08:36:26;;;;;;;19.13;12.65;;;8.20;99.90;;;;;;5134047;27;20039;-82
2022/09/29 08:38:53;;;;;;;19.15;13.05;;;8.30;99.90;;;;;;5133305;27;20050;-82
2022/09/29 08:41:56;;;;;;;18.98;12.50;;;8.40;99.90;;;;;;5133887;27;20039;-82
2022/09/29 08:44:47;;;;;;;15.13;9.82;;;8.50;99.90;;;;;;5134349;27;20407;-82
2022/09/29 08:47:33;;;;;;;15.68;10.23;;;8.60;99.90;;;;;;5134012;27;20038;-82
2022/09/29 08:50:05;;;;;;;16.77;10.35;;;8.70;99.90;;;;;;5134202;27;20039;-82
2022/09/29 08:52:38;;;;;;;17.00;10.35;;;8.70;99.90;;;;;;5134066;27;20039;-82
2022/09/29 08:55:15;;;;;;;15.75;10.23;;;8.80;99.90;;;;;;5134145;27;20092;-82
2022/09/29 08:57:41;;;;;;;14.80;10.68;;;9.00;99.90;;;;;;5133777;27;20047;-82
2022/09/29 09:00:12;;;;;;;16.83;10.43;;;9.10;99.90;;;;;;5134124;27;20046;-82
2022/09/29 09:02:58;;;;;;;16.90;10.55;;;9.20;99.90;;;;;;5133352;27;20034;-82
2022/09/29 09:05:57;;;;;;;16.17;10.43;;;9.30;99.90;;;;;;5134146;27;20035;-82
2022/09/29 09:08:48;;;;;;;15.10;10.02;;;9.40;99.90;;;;;;5133419;27;20043;-82
2022/09/29 09:11:59;;;;;;;14.05;9.82;;;9.50;99.90;;;;;;5133739;27;20031;-82
2022/09/29 09:15:16;;;;;;;16.35;10.63;;;9.60;99.90;;;;;;5128829;27;20050;-82
2022/09/29 09:18:00;;;;;;;17.80;11.35;;;9.70;99.90;;;;;;5077469;27;20054;-82
2022/09/29 09:20:53;;;;;;;15.75;10.50;;;9.80;99.90;;;;;;5133549;27;20038;-82
2022/09/29 09:23:21;;;;;;;;;;;9.80;99.90;;;;;;5119364;27;20061;-82
2022/09/29 09:25:56;;;;;;;17.33;10.27;;;9.90;99.90;;;;;;5116690;27;19922;-82
2022/09/29 09:28:36;;;;;;;14.98;10.32;;;9.90;99.90;;;;;;5133890;27;20041;-82
2022/09/29 09:31:25;;;;;;;15.88;11.50;;;10.00;99.90;;;;;;5132928;27;20050;-82
2022/09/29 09:34:09;;;;;;;15.23;11.07;;;10.10;99.90;;;;;;5134113;27;20042;-82
2022/09/29 09:36:45;;;;;;;14.50;10.23;;;10.10;99.90;;;;;;5116718;27;20522;-82
2022/09/29 09:39:19;;;;;;;18.70;10.57;;;10.20;99.90;;;;;;5115913;27;20074;-82
2022/09/29 09:41:47;;;;;;;15.88;10.45;;;10.20;99.90;;;;;;5107761;27;20397;-82
2022/09/29 09:44:18;;;;;;;14.65;9.18;;;10.30;99.90;;;;;;5137435;27;20090;-82
2022/09/29 09:46:48;;;;;;;15.60;9.85;;;10.40;99.90;;;;;;5137317;27;20046;-82
2022/09/29 09:49:19;;;;;;;15.35;10.20;;;10.50;99.90;;;;;;5137518;27;20504;-82
2022/09/29 09:52:02;;;;;;;15.07;10.27;;;10.60;99.90;;;;;;5137004;27;20562;-82
2022/09/29 09:54:41;;;;;;;17.27;10.38;;;10.60;99.90;;;;;;5137109;27;20479;-82
2022/09/29 09:57:26;;;;;;;14.20;9.55;;;10.80;99.90;;;;;;5133958;27;20045;-82
2022/09/29 10:00:12;;;;;;;15.90;9.65;;;10.80;99.90;;;;;;5136785;27;20042;-82
2022/09/29 10:02:45;;;;;;;12.57;8.13;;;11.00;99.90;;;;;;5120039;27;20470;-82
2022/09/29 10:05:19;;;;;;;14.18;9.80;;;11.10;99.90;;;;;;5136962;27;20035;-82
2022/09/29 10:07:47;;;;;;;12.63;8.32;;;11.10;99.90;;;;;;5136835;27;20042;-82
2022/09/29 10:10:20;;;;;;;13.35;8.40;;;11.20;99.90;;;;;;5119785;27;20039;-82
2022/09/29 10:12:49;;;;;;;12.30;8.15;;;11.30;99.90;;;;;;5136885;27;20157;-82
2022/09/29 10:15:20;;;;;;;12.45;8.88;;;11.40;99.90;;;;;;5136628;27;20066;-82
2022/09/29 10:17:53;;;;;;;13.48;8.55;;;11.40;99.90;;;;;;5136475;27;20078;-82
2022/09/29 10:20:33;;;;;;;13.40;7.88;;;11.50;99.90;;;;;;5111119;27;20031;-82
2022/09/29 10:23:32;;;;;;;11.90;7.15;;;11.60;99.90;;;;;;5123218;27;20023;-82
2022/09/29 10:26:00;;;;;;;10.55;6.95;;;11.70;99.90;;;;;;5125582;27;20488;-82
2022/09/29 10:28:36;;;;;;;11.65;7.90;;;11.80;99.90;;;;;;5126992;27;20050;-82
2022/09/29 10:31:02;;;;;;;11.23;6.82;;;11.90;99.90;;;;;;5126464;27;20035;-83
2022/09/29 10:33:28;;;;;;;11.90;6.82;;;11.90;99.90;;;;;;5124776;27;20510;-82
2022/09/29 10:36:21;;;;;;;11.23;9.15;;;12.00;99.90;;;;;;5125803;27;20031;-82
2022/09/29 10:38:50;;;;;;;11.68;7.40;;;12.20;99.90;;;;;;5126435;27;20491;-83
2022/09/29 10:41:17;;;;;;;11.50;6.90;;;12.30;99.90;;;;;;5115311;27;20043;-82
2022/09/29 10:43:43;;;;;;;11.05;7.00;;;12.30;99.90;;;;;;5115456;27;20039;-83
2022/09/29 10:46:49;;;;;;;11.50;9.75;;;12.40;99.90;;;;;;5098675;27;20514;-82
2022/09/29 10:49:16;;;;;;;10.75;6.93;;;12.50;99.90;;;;;;5115383;27;20050;-83
2022/09/29 10:52:03;;;;;;;12.60;8.80;;;12.60;99.90;;;;;;5115038;27;20070;-83
2022/09/29 10:54:36;;;;;;;11.35;6.85;;;12.60;99.90;;;;;;5115234;27;20035;-83
2022/09/29 10:57:14;;;;;;;12.00;6.68;;;12.70;99.90;;;;;;5115480;27;20515;-83
2022/09/29 10:59:52;;;;;;;14.68;6.95;;;12.80;99.90;;;;;;5114684;27;20492;-83
2022/09/29 11:02:28;;;;;;;14.05;8.35;;;12.80;99.90;;;;;;5115019;27;20034;-83
2022/09/29 11:04:57;;;;;;;10.80;6.65;;;12.90;99.90;;;;;;5111088;27;20030;-83
2022/09/29 11:07:23;;;;;;;13.38;7.15;;;13.00;99.90;;;;;;5124097;27;20081;-83
2022/09/29 11:09:53;;;;;;;13.20;9.05;;;13.10;99.90;;;;;;5112310;27;20396;-83
2022/09/29 11:12:32;;;;;;;12.05;7.22;;;13.20;99.90;;;;;;5116035;27;20043;-83
2022/09/29 11:14:59;;;;;;;10.95;6.90;;;13.30;99.90;;;;;;5107407;27;20039;-83
2022/09/29 11:17:30;;;;;;;11.02;7.60;;;13.40;99.90;;;;;;5128618;27;20480;-83
2022/09/29 11:20:00;;;;;;;10.70;7.15;;;13.40;99.90;;;;;;5118100;27;20131;-83
2022/09/29 11:22:48;;;;;;;13.88;7.55;;;13.50;99.90;;;;;;5134872;27;20066;-83
2022/09/29 11:25:58;;;;;;;9.82;5.80;;;13.50;99.90;;;;;;5118092;27;20491;-83
2022/09/29 11:28:53;;;;;;;11.43;7.72;;;13.60;99.90;;;;;;5134961;27;20488;-82
2022/09/29 11:31:58;;;;;;;9.80;7.25;;;13.70;99.90;;;;;;5121014;27;20042;-83
2022/09/29 11:34:49;;;;;;;10.23;6.40;;;13.80;99.90;;;;;;5117080;27;20078;-83
2022/09/29 11:37:56;;;;;;;11.20;9.25;;;13.90;99.90;;;;;;5115843;27;20380;-83
2022/09/29 11:40:28;;;;;;;12.63;8.55;;;14.00;99.90;;;;;;5089229;27;20078;-83
2022/09/29 11:43:18;;;;;;;9.45;5.53;;;14.10;99.90;;;;;;5134142;27;20046;-83
2022/09/29 11:45:53;;;;;;;12.77;10.13;;;14.10;99.90;;;;;;5117429;27;20500;-83
2022/09/29 11:48:45;;;;;;;12.35;9.52;;;14.30;99.90;;;;;;5135142;27;20035;-83
2022/09/29 11:51:27;;;;;;;13.30;7.57;;;14.40;99.90;;;;;;5134462;27;20034;-83
2022/09/29 11:54:11;;;;;;;12.52;7.25;;;14.50;99.90;;;;;;5117729;27;20100;-83
2022/09/29 11:56:54;;;;;;;13.00;8.60;;;14.60;99.90;;;;;;5134803;27;20043;-83
2022/09/29 11:59:22;;;;;;;12.65;8.48;;;14.70;99.90;;;;;;5134322;27;20153;-83
2022/09/29 12:02:07;;;;;;;12.45;8.73;;;14.70;99.90;;;;;;5134422;27;20046;-83
2022/09/29 12:04:56;;;;;;;12.75;10.25;;;14.80;99.90;;;;;;5134566;27;20488;-83
2022/09/29 12:07:40;;;;;;;15.52;9.90;;;14.90;99.90;;;;;;5117270;27;20046;-83
2022/09/29 12:10:24;;;;;;;13.77;12.30;;;14.90;99.90;;;;;;5117224;27;20038;-83
2022/09/29 12:13:04;;;;;;;12.25;9.95;;;15.00;99.90;;;;;;5134415;27;20563;-83
2022/09/29 12:15:45;;;;;;;11.13;8.52;;;15.20;99.90;;;;;;5115995;27;20084;-83
2022/09/29 12:18:35;;;;;;;10.63;7.43;;;15.30;99.90;;;;;;5113541;27;20043;-83
2022/09/29 12:21:02;;;;;;;11.50;8.25;;;15.40;99.90;;;;;;5121465;27;20062;-83
2022/09/29 12:23:31;;;;;;;11.95;9.60;;;15.50;99.90;;;;;;5114081;27;20131;-83
2022/09/29 12:26:12;;;;;;;10.55;8.45;;;15.60;99.90;;;;;;5096539;27;20035;-83
2022/09/29 12:28:54;;;;;;;11.25;7.35;;;15.60;99.90;;;;;;5113850;27;20545;-83
2022/09/29 12:31:32;;;;;;;11.55;8.20;;;15.60;99.90;;;;;;5113604;27;20039;-83
2022/09/29 12:34:03;;;;;;;12.43;10.65;;;15.70;99.90;;;;;;5114147;27;20080;-83
2022/09/29 12:36:45;;;;;;;7.45;3.30;;;15.90;99.90;;;;;;5113292;27;20067;-83
2022/09/29 12:39:43;;;;;;;10.45;6.45;;;16.00;99.90;;;;;;5113243;28;20039;-83
2022/09/29 12:42:28;;;;;;;9.40;6.40;;;16.20;99.90;;;;;;5078639;28;20055;-83
2022/09/29 12:45:22;;;;;;;10.90;8.32;;;16.30;99.90;;;;;;5112700;28;20118;-83
2022/09/29 12:48:04;;;;;;;9.35;7.28;;;16.40;99.90;;;;;;5096757;28;20389;-83
2022/09/29 12:50:40;;;;;;;10.15;6.55;;;16.60;99.90;;;;;;5112420;28;20099;-83
2022/09/29 12:53:24;;;;;;;9.65;6.13;;;16.70;99.90;;;;;;5112965;28;20512;-83
2022/09/29 12:56:00;;;;;;;7.28;4.10;;;16.90;99.90;;;;;;5095980;28;20050;-84
2022/09/29 12:59:00;;;;;;;9.52;6.65;;;16.90;98.70;;;;;;5110944;28;20045;-84
2022/09/29 13:01:35;;;;;;;8.50;4.60;;;17.20;99.90;;;;;;5111120;28;20039;-83
2022/09/29 13:04:34;;;;;;;7.07;3.53;;;17.50;99.50;;;;;;5113506;28;20400;-83
2022/09/29 13:07:24;;;;;;;7.15;4.00;;;17.70;96.70;;;;;;5113163;28;20039;-83
2022/09/29 13:10:03;;;;;;;8.85;4.95;;;18.10;96.40;;;;;;5118110;28;20058;-83
2022/09/29 13:13:07;;;;;;;7.82;4.40;;;18.80;94.00;;;;;;5132779;27;20031;-83
2022/09/29 13:15:56;;;;;;;7.03;3.83;;;20.10;91.50;;;;;;5134909;27;20395;-83
2022/09/29 13:18:28;;;;;;;8.05;4.57;;;21.80;86.10;;;;;;5137558;27;20039;-83
2022/09/29 13:21:14;;;;;;;9.25;5.57;;;23.00;71.40;;;;;;5109611;27;20032;-84